Time,TemperatureF,DewpointF,PressureIn,WindDirection,WindDirectionDegrees,WindSpeedMPH,WindSpeedGustMPH,Humidity,HourlyPrecipIn,Conditions,Clouds,dailyrainin,SoftwareType,DateUTC
2013-07-25 19:07:00,76.1,57.2,29.57,NNE,23,0.7,0.7,52,0.00,,,0.00,WUHU216HW,2013-07-25 23:07:00,
2013-07-25 19:08:00,76.1,57.2,29.57,NNE,23,0.2,0.7,52,0.00,,,0.00,WUHU216HW,2013-07-25 23:08:00,
2013-07-25 19:13:00,75.8,57.0,29.57,WSW,248,1.8,1.8,52,0.00,,,0.00,WUHU216HW,2013-07-25 23:13:00,
2013-07-25 19:18:00,75.4,57.2,29.58,East,90,0.4,1.8,53,0.00,,,0.00,WUHU216HW,2013-07-25 23:18:00,
2013-07-25 19:23:00,75.2,58.0,29.58,East,90,0.0,2.0,55,0.00,,,0.00,WUHU216HW,2013-07-25 23:23:00,
2013-07-25 19:28:00,75.1,57.2,29.58,East,90,0.0,2.0,54,0.00,,,0.00,WUHU216HW,2013-07-25 23:28:00,
2013-07-25 19:33:00,74.9,57.6,29.58,East,90,0.4,0.7,55,0.00,,,0.00,WUHU216HW,2013-07-25 23:33:00,
2013-07-25 19:38:00,74.5,57.8,29.58,East,90,0.0,0.7,56,0.00,,,0.00,WUHU216HW,2013-07-25 23:38:00,
2013-07-25 19:43:00,74.3,57.6,29.58,East,90,0.4,0.7,56,0.00,,,0.00,WUHU216HW,2013-07-25 23:43:00,
2013-07-25 19:48:00,74.2,57.9,29.58,East,90,0.0,0.9,57,0.00,,,0.00,WUHU216HW,2013-07-25 23:48:00,
2013-07-25 19:53:00,74.0,57.7,29.58,East,90,0.4,0.9,57,0.00,,,0.00,WUHU216HW,2013-07-25 23:53:00,
2013-07-25 19:58:00,73.8,58.1,29.58,East,90,0.4,1.3,58,0.00,,,0.00,WUHU216HW,2013-07-25 23:58:00,
2013-07-25 20:03:00,73.4,57.7,29.58,East,90,0.0,1.3,58,0.00,,,0.00,WUHU216HW,2013-07-26 00:03:00,
2013-07-25 20:08:00,73.1,57.3,29.58,East,90,0.0,1.3,58,0.00,,,0.00,WUHU216HW,2013-07-26 00:08:00,
2013-07-25 20:13:00,72.9,57.2,29.58,East,90,0.0,0.0,58,0.00,,,0.00,WUHU216HW,2013-07-26 00:13:00,
2013-07-25 20:18:00,72.7,57.5,29.58,East,90,0.2,1.6,59,0.00,,,0.00,WUHU216HW,2013-07-26 00:18:00,
2013-07-25 20:23:00,72.7,57.5,29.58,East,90,0.2,1.6,59,0.00,,,0.00,WUHU216HW,2013-07-26 00:23:00,
2013-07-25 20:48:00,69.7,56.1,29.58,East,90,0.0,0.0,62,0.00,,,0.00,WUHU216HW,2013-07-26 00:48:00,
2013-07-25 20:53:00,69.7,56.1,29.58,East,90,0.0,0.0,62,0.00,,,0.00,WUHU216HW,2013-07-26 00:53:00,
2013-07-25 21:00:00,69.3,56.2,29.59,NW,315,0.7,0.7,63,0.00,,,0.00,WUHU216HW,2013-07-26 01:00:00,
2013-07-25 21:05:00,69.3,56.2,29.59,NW,315,0.7,0.7,63,0.00,,,0.00,WUHU216HW,2013-07-26 01:05:00,
2013-07-25 21:30:00,67.1,56.3,29.59,NNE,23,0.0,0.0,68,0.00,,,0.00,WUHU216HW,2013-07-26 01:30:00,
2013-07-25 21:35:00,67.1,56.3,29.59,NNE,23,0.0,0.0,68,0.00,,,0.00,WUHU216HW,2013-07-26 01:35:00,
2013-07-25 22:00:00,65.9,55.8,29.60,NNE,23,0.4,0.4,70,0.00,,,0.00,WUHU216HW,2013-07-26 02:00:00,
2013-07-25 22:05:00,65.9,55.8,29.60,NNE,23,0.4,0.4,70,0.00,,,0.00,WUHU216HW,2013-07-26 02:05:00,
2013-07-25 22:30:00,65.0,55.8,29.61,NNE,23,0.0,0.0,72,0.00,,,0.00,WUHU216HW,2013-07-26 02:30:00,
2013-07-25 22:35:00,65.0,55.8,29.61,NNE,23,0.0,0.0,72,0.00,,,0.00,WUHU216HW,2013-07-26 02:35:00,
2013-07-25 23:00:00,63.7,55.3,29.61,NNE,23,0.0,0.0,74,0.00,,,0.00,WUHU216HW,2013-07-26 03:00:00,
2013-07-25 23:05:00,63.7,55.3,29.61,NNE,23,0.0,0.0,74,0.00,,,0.00,WUHU216HW,2013-07-26 03:05:00,
2013-07-25 23:30:00,62.5,54.7,29.62,NNE,23,0.0,0.0,76,0.00,,,0.00,WUHU216HW,2013-07-26 03:30:00,
2013-07-25 23:35:00,62.5,54.7,29.62,NNE,23,0.0,0.0,76,0.00,,,0.00,WUHU216HW,2013-07-26 03:35:00,